Time;durP1;ratioP1;P1;durP2;ratioP2;P2;SDS_P1;SDS_P2;PMS_P1;PMS_P2;Temp;Humidity;BMP_temperature;BMP_pressure;BME280_temperature;BME280_humidity;BME280_pressure;Samples;Min_cycle;Max_cycle;Signal;HPM_P1;HPM_P2
2021/08/15 00:01:13;;;;;;;17.50;11.02;;;;;;;;;;5031100;28;20172;-44
2021/08/15 00:03:40;;;;;;;17.73;11.60;;;;;;;;;;5030968;28;20053;-44
2021/08/15 00:06:07;;;;;;;13.60;11.10;;;;;;;;;;5029294;28;20450;-46
2021/08/15 00:08:35;;;;;;;14.68;10.85;;;;;;;;;;5018595;28;20075;-45
2021/08/15 00:11:02;;;;;;;14.35;10.77;;;;;;;;;;5030969;28;20038;-45
2021/08/15 00:13:29;;;;;;;15.70;11.02;;;;;;;;;;5018881;28;20038;-45
2021/08/15 00:15:55;;;;;;;16.25;11.00;;;;;;;;;;5025869;28;20046;-45
2021/08/15 00:18:22;;;;;;;15.93;11.35;;;;;;;;;;5030612;28;20129;-45
2021/08/15 00:20:49;;;;;;;17.40;11.95;;;;;;;;;;5030921;28;20041;-45
2021/08/15 00:23:16;;;;;;;14.82;10.82;;;;;;;;;;5031613;28;20041;-44
2021/08/15 00:25:43;;;;;;;13.07;11.00;;;;;;;;;;5017910;28;20033;-43
2021/08/15 00:28:10;;;;;;;17.40;12.15;;;;;;;;;;5029761;28;20503;-43
2021/08/15 00:30:36;;;;;;;14.70;11.10;;;;;;;;;;5031764;28;20041;-43
2021/08/15 00:33:03;;;;;;;17.10;11.30;;;;;;;;;;5021350;28;20052;-42
2021/08/15 00:35:30;;;;;;;14.55;10.63;;;;;;;;;;5023752;28;20046;-43
2021/08/15 00:37:57;;;;;;;16.42;11.65;;;;;;;;;;5034623;28;20502;-42
2021/08/15 00:40:23;;;;;;;12.68;10.60;;;;;;;;;;5034751;28;20477;-44
2021/08/15 00:42:50;;;;;;;15.80;11.77;;;;;;;;;;5033283;28;20048;-44
2021/08/15 00:45:17;;;;;;;17.27;11.93;;;;;;;;;;5019057;28;20042;-45
2021/08/15 00:47:43;;;;;;;15.88;11.50;;;;;;;;;;5018748;28;20139;-44
2021/08/15 00:50:10;;;;;;;18.55;11.80;;;;;;;;;;5034182;28;20569;-45
2021/08/15 00:52:37;;;;;;;16.48;11.27;;;;;;;;;;5034255;28;20052;-45
2021/08/15 00:55:08;;;;;;;16.33;11.35;;;;;;;;;;5029797;28;20042;-44
2021/08/15 00:57:35;;;;;;;12.52;10.70;;;;;;;;;;5028697;28;20057;-44
2021/08/15 01:00:05;;;;;;;14.68;11.88;;;;;;;;;;5014720;28;20049;-45
2021/08/15 01:02:32;;;;;;;18.20;11.90;;;;;;;;;;5017254;28;20043;-45
2021/08/15 01:04:59;;;;;;;15.80;11.82;;;;;;;;;;5020473;28;20046;-47
2021/08/15 01:07:26;;;;;;;17.45;12.25;;;;;;;;;;5016020;28;20124;-48
2021/08/15 01:09:53;;;;;;;15.27;11.77;;;;;;;;;;5016784;28;20049;-43
2021/08/15 01:12:22;;;;;;;20.17;12.18;;;;;;;;;;5014601;28;20046;-46
2021/08/15 01:14:49;;;;;;;16.05;13.35;;;;;;;;;;5014972;28;20125;-44
2021/08/15 01:17:16;;;;;;;16.50;12.77;;;;;;;;;;5029737;28;20045;-42
2021/08/15 01:19:42;;;;;;;18.15;13.55;;;;;;;;;;5033819;28;20045;-44
2021/08/15 01:22:09;;;;;;;18.63;12.95;;;;;;;;;;5034343;28;20037;-43
2021/08/15 01:24:36;;;;;;;20.27;14.10;;;;;;;;;;5031974;28;20041;-43
2021/08/15 01:27:22;;;;;;;19.98;14.18;;;;;;;;;;5034314;28;20045;-44
2021/08/15 01:29:49;;;;;;;21.20;14.95;;;;;;;;;;5017696;28;20137;-43
2021/08/15 01:32:16;;;;;;;20.35;13.80;;;;;;;;;;5034074;28;20049;-44
2021/08/15 01:34:45;;;;;;;14.73;12.23;;;;;;;;;;5022157;28;20050;-45
2021/08/15 01:37:12;;;;;;;17.00;14.07;;;;;;;;;;5033346;28;20050;-46
2021/08/15 01:39:42;;;;;;;17.80;14.00;;;;;;;;;;5033394;28;20498;-44
2021/08/15 01:42:09;;;;;;;19.77;13.23;;;;;;;;;;5032480;28;20442;-43
2021/08/15 01:44:35;;;;;;;15.65;13.63;;;;;;;;;;5032276;28;20045;-45
2021/08/15 01:47:06;;;;;;;18.13;13.73;;;;;;;;;;5027087;28;20053;-45
2021/08/15 01:49:33;;;;;;;20.85;13.93;;;;;;;;;;5014199;28;20451;-45
2021/08/15 01:52:00;;;;;;;18.25;14.68;;;;;;;;;;5014886;28;20050;-46
2021/08/15 01:54:27;;;;;;;18.45;13.50;;;;;;;;;;5017692;28;20510;-43
2021/08/15 01:56:54;;;;;;;15.40;12.82;;;;;;;;;;5032117;28;20041;-45
2021/08/15 01:59:21;;;;;;;17.88;13.10;;;;;;;;;;5022817;28;20050;-44
2021/08/15 02:01:48;;;;;;;15.73;12.80;;;;;;;;;;5013711;28;20129;-45
2021/08/15 02:04:17;;;;;;;16.02;13.90;;;;;;;;;;5038425;28;20060;-43
2021/08/15 02:06:43;;;;;;;15.40;13.55;;;;;;;;;;5033139;28;20376;-45
2021/08/15 02:09:10;;;;;;;18.52;13.98;;;;;;;;;;5032182;28;20430;-45
2021/08/15 02:11:37;;;;;;;18.98;12.77;;;;;;;;;;5033042;28;20046;-43
2021/08/15 02:14:04;;;;;;;16.60;12.65;;;;;;;;;;5031097;28;20056;-45
2021/08/15 02:16:30;;;;;;;16.15;12.65;;;;;;;;;;5021194;28;20050;-44
2021/08/15 02:18:57;;;;;;;19.95;12.52;;;;;;;;;;5028034;28;20044;-44
2021/08/15 02:21:24;;;;;;;15.35;12.95;;;;;;;;;;5033070;28;20513;-42
2021/08/15 02:23:51;;;;;;;14.07;12.30;;;;;;;;;;5032248;28;20384;-47
2021/08/15 02:26:17;;;;;;;17.75;13.07;;;;;;;;;;5032166;28;20048;-45
2021/08/15 02:28:44;;;;;;;16.30;12.50;;;;;;;;;;5030807;28;20040;-46
2021/08/15 02:31:11;;;;;;;15.90;12.57;;;;;;;;;;5032744;28;20045;-45
2021/08/15 02:33:37;;;;;;;17.75;12.85;;;;;;;;;;5031753;28;20091;-43
2021/08/15 02:36:04;;;;;;;15.25;13.48;;;;;;;;;;5012984;28;20050;-45
2021/08/15 02:38:31;;;;;;;17.58;13.43;;;;;;;;;;5018671;28;20037;-43
2021/08/15 02:40:58;;;;;;;14.68;12.68;;;;;;;;;;5032630;28;20051;-46
2021/08/15 02:43:24;;;;;;;16.55;12.63;;;;;;;;;;5031314;28;20061;-43
2021/08/15 02:45:51;;;;;;;15.93;12.43;;;;;;;;;;5014180;28;20419;-45
2021/08/15 02:48:18;;;;;;;19.30;13.25;;;;;;;;;;5042427;28;20046;-45
2021/08/15 02:50:44;;;;;;;17.77;12.48;;;;;;;;;;5032517;28;20041;-43
2021/08/15 02:53:11;;;;;;;17.67;13.30;;;;;;;;;;5032650;28;20128;-43
2021/08/15 02:55:38;;;;;;;17.45;13.38;;;;;;;;;;5027943;28;20048;-43
2021/08/15 02:58:05;;;;;;;21.88;13.57;;;;;;;;;;5032252;28;20037;-43
2021/08/15 03:00:31;;;;;;;16.23;13.10;;;;;;;;;;5030414;28;20124;-44
2021/08/15 03:02:58;;;;;;;18.92;13.10;;;;;;;;;;5031888;28;20495;-43
2021/08/15 03:05:25;;;;;;;19.88;13.15;;;;;;;;;;5031455;28;20048;-44
2021/08/15 03:07:52;;;;;;;17.65;13.50;;;;;;;;;;5030986;28;20124;-47
2021/08/15 03:10:20;;;;;;;18.52;13.93;;;;;;;;;;5032294;28;20128;-43
2021/08/15 03:12:46;;;;;;;19.95;13.18;;;;;;;;;;5031598;28;20068;-45
2021/08/15 03:15:13;;;;;;;16.98;13.15;;;;;;;;;;5029907;28;20067;-43
2021/08/15 03:17:40;;;;;;;22.48;14.13;;;;;;;;;;5018111;28;20128;-47
2021/08/15 03:20:07;;;;;;;15.45;13.40;;;;;;;;;;5032124;28;20071;-45
2021/08/15 03:22:34;;;;;;;19.77;14.30;;;;;;;;;;5022959;28;20447;-44
2021/08/15 03:25:01;;;;;;;19.95;14.38;;;;;;;;;;5012130;28;20034;-46
2021/08/15 03:27:27;;;;;;;19.88;14.73;;;;;;;;;;5035160;28;20045;-45
2021/08/15 03:29:54;;;;;;;20.00;15.07;;;;;;;;;;5030355;28;20041;-45
2021/08/15 03:32:21;;;;;;;21.38;14.43;;;;;;;;;;5031927;28;20088;-45
2021/08/15 03:34:47;;;;;;;20.80;15.10;;;;;;;;;;5030521;28;20041;-43
2021/08/15 03:37:15;;;;;;;16.45;13.27;;;;;;;;;;5032051;28;20132;-45
2021/08/15 03:39:43;;;;;;;19.35;14.30;;;;;;;;;;5062998;22;20481;-45
2021/08/15 03:42:10;;;;;;;17.83;13.45;;;;;;;;;;5081416;28;20040;-45
2021/08/15 03:44:37;;;;;;;16.88;13.82;;;;;;;;;;5087297;28;20419;-43
2021/08/15 03:47:03;;;;;;;16.48;14.38;;;;;;;;;;5091081;28;20101;-46
2021/08/15 03:49:30;;;;;;;17.08;13.90;;;;;;;;;;5070915;28;20071;-44
2021/08/15 03:51:57;;;;;;;19.77;15.63;;;;;;;;;;5070968;28;20059;-46
2021/08/15 03:54:24;;;;;;;16.25;14.27;;;;;;;;;;5070060;28;20049;-45
2021/08/15 03:56:51;;;;;;;18.70;13.80;;;;;;;;;;5089495;28;20044;-45
2021/08/15 03:59:18;;;;;;;17.00;13.73;;;;;;;;;;5088124;28;20043;-44
2021/08/15 04:01:46;;;;;;;20.55;13.35;;;;;;;;;;5087310;28;20046;-47
2021/08/15 04:04:13;;;;;;;18.23;13.10;;;;;;;;;;5090080;28;20113;-44
2021/08/15 04:06:39;;;;;;;20.65;13.60;;;;;;;;;;5073405;28;20047;-45
2021/08/15 04:09:06;;;;;;;20.60;14.32;;;;;;;;;;5070600;28;20041;-47
2021/08/15 04:11:33;;;;;;;16.58;13.30;;;;;;;;;;5089597;28;20123;-45
2021/08/15 04:14:00;;;;;;;18.45;13.98;;;;;;;;;;5094265;28;20040;-46
2021/08/15 04:16:26;;;;;;;20.73;14.80;;;;;;;;;;5081025;28;20044;-44
2021/08/15 04:18:55;;;;;;;19.17;14.00;;;;;;;;;;5085080;28;20043;-46
2021/08/15 04:21:22;;;;;;;19.20;13.32;;;;;;;;;;5094793;28;20044;-43
2021/08/15 04:23:48;;;;;;;19.38;13.88;;;;;;;;;;5067627;28;20079;-46
2021/08/15 04:26:15;;;;;;;17.83;13.27;;;;;;;;;;5073602;28;20124;-45
2021/08/15 04:28:42;;;;;;;15.50;12.55;;;;;;;;;;5081022;28;20036;-45
2021/08/15 04:31:08;;;;;;;19.33;13.73;;;;;;;;;;5092604;28;20055;-44
2021/08/15 04:33:35;;;;;;;18.23;12.90;;;;;;;;;;5094553;28;20086;-43
2021/08/15 04:36:02;;;;;;;19.17;12.63;;;;;;;;;;5086676;28;20497;-44
2021/08/15 04:38:29;;;;;;;19.63;12.93;;;;;;;;;;5087272;28;20043;-44
2021/08/15 04:40:56;;;;;;;18.95;13.43;;;;;;;;;;5076786;28;20044;-44
2021/08/15 04:43:23;;;;;;;16.55;12.60;;;;;;;;;;5094225;28;20036;-44
2021/08/15 04:45:50;;;;;;;18.00;12.88;;;;;;;;;;5075767;28;20516;-46
2021/08/15 04:48:17;;;;;;;18.38;13.25;;;;;;;;;;5073592;28;20048;-43
2021/08/15 04:50:43;;;;;;;20.02;13.30;;;;;;;;;;5090653;28;20051;-46
2021/08/15 04:53:11;;;;;;;15.60;12.82;;;;;;;;;;5094106;28;20044;-47
2021/08/15 04:55:38;;;;;;;20.48;13.70;;;;;;;;;;5076176;28;20048;-45
2021/08/15 04:58:04;;;;;;;19.60;12.90;;;;;;;;;;5073619;28;20044;-45
2021/08/15 05:00:31;;;;;;;17.65;12.95;;;;;;;;;;5084513;28;20115;-45
2021/08/15 05:02:58;;;;;;;19.25;12.20;;;;;;;;;;5079918;28;20036;-45
2021/08/15 05:05:25;;;;;;;19.38;13.68;;;;;;;;;;5091187;28;20040;-45
2021/08/15 05:07:52;;;;;;;21.48;13.13;;;;;;;;;;5075180;28;20042;-45
2021/08/15 05:10:20;;;;;;;17.05;12.02;;;;;;;;;;5076342;28;20044;-47
2021/08/15 05:12:47;;;;;;;18.67;12.40;;;;;;;;;;5093654;28;20071;-47
2021/08/15 05:15:13;;;;;;;17.88;12.00;;;;;;;;;;5078241;28;20044;-45
2021/08/15 05:17:40;;;;;;;18.42;11.30;;;;;;;;;;5072159;28;20119;-45
2021/08/15 05:20:07;;;;;;;19.30;12.27;;;;;;;;;;5072929;28;20489;-46
2021/08/15 05:22:34;;;;;;;20.08;11.40;;;;;;;;;;5073088;28;20037;-46
2021/08/15 05:25:01;;;;;;;21.75;12.35;;;;;;;;;;5072227;28;20036;-44
2021/08/15 05:27:28;;;;;;;22.98;12.10;;;;;;;;;;5077532;28;20457;-45
2021/08/15 05:29:54;;;;;;;19.92;11.85;;;;;;;;;;5080158;28;20185;-46
2021/08/15 05:32:21;;;;;;;17.42;12.15;;;;;;;;;;5092159;28;20412;-44
2021/08/15 05:34:48;;;;;;;18.30;12.90;;;;;;;;;;5076486;28;20044;-47
2021/08/15 05:37:15;;;;;;;18.05;12.85;;;;;;;;;;5086979;28;20047;-45
2021/08/15 05:39:42;;;;;;;15.30;11.90;;;;;;;;;;5072777;28;20036;-44
2021/08/15 05:42:08;;;;;;;17.23;11.63;;;;;;;;;;5081912;28;20044;-44
2021/08/15 05:44:35;;;;;;;18.73;12.90;;;;;;;;;;5089797;28;20511;-47
2021/08/15 05:47:04;;;;;;;22.08;13.27;;;;;;;;;;5091600;28;20054;-44
2021/08/15 05:49:31;;;;;;;17.65;12.60;;;;;;;;;;5088048;28;21988;-44
2021/08/15 05:51:58;;;;;;;17.83;13.77;;;;;;;;;;5077397;28;20127;-46
2021/08/15 05:54:25;;;;;;;18.48;13.00;;;;;;;;;;5070731;28;20501;-45
2021/08/15 05:56:52;;;;;;;17.40;12.95;;;;;;;;;;5081627;28;20072;-45
2021/08/15 05:59:19;;;;;;;20.48;13.40;;;;;;;;;;5084214;28;20150;-43
2021/08/15 06:01:45;;;;;;;21.42;14.10;;;;;;;;;;5081967;28;20505;-43
2021/08/15 06:04:13;;;;;;;18.77;13.60;;;;;;;;;;5090680;28;20040;-44
2021/08/15 06:06:39;;;;;;;20.27;13.75;;;;;;;;;;5090003;28;20051;-45
2021/08/15 06:09:06;;;;;;;16.98;14.50;;;;;;;;;;5088868;28;20042;-46
2021/08/15 06:11:33;;;;;;;24.10;14.90;;;;;;;;;;5089245;28;20047;-44
2021/08/15 06:14:00;;;;;;;24.23;15.30;;;;;;;;;;5086945;28;20076;-45
2021/08/15 06:16:27;;;;;;;16.73;14.45;;;;;;;;;;5085667;28;20123;-45
2021/08/15 06:18:54;;;;;;;19.48;15.07;;;;;;;;;;5090165;28;20722;-43
2021/08/15 06:21:20;;;;;;;19.80;14.43;;;;;;;;;;5092059;28;20036;-44
2021/08/15 06:23:49;;;;;;;19.83;14.63;;;;;;;;;;5082270;28;20048;-44
2021/08/15 06:26:16;;;;;;;21.02;15.13;;;;;;;;;;5088645;28;20040;-45
2021/08/15 06:28:43;;;;;;;18.50;13.98;;;;;;;;;;5092102;28;20067;-44
2021/08/15 06:31:20;;;;;;;20.60;14.98;;;;;;;;;;5089965;28;20035;-44
2021/08/15 06:33:47;;;;;;;21.58;14.57;;;;;;;;;;5080502;28;20131;-44
2021/08/15 06:36:13;;;;;;;17.98;14.90;;;;;;;;;;5086313;28;20040;-45
2021/08/15 06:38:40;;;;;;;19.80;15.35;;;;;;;;;;5084339;28;20032;-46
2021/08/15 06:41:08;;;;;;;20.58;15.38;;;;;;;;;;5089739;28;20572;-47
2021/08/15 06:43:35;;;;;;;20.70;14.15;;;;;;;;;;5086224;28;20043;-46
2021/08/15 06:46:02;;;;;;;27.70;17.17;;;;;;;;;;5059952;28;20052;-44
2021/08/15 06:48:29;;;;;;;22.85;16.08;;;;;;;;;;5079872;28;20081;-45
2021/08/15 06:50:59;;;;;;;19.80;15.68;;;;;;;;;;5081780;28;20068;-45
2021/08/15 06:53:26;;;;;;;20.17;15.13;;;;;;;;;;5072512;28;20119;-45
2021/08/15 06:55:53;;;;;;;23.80;15.40;;;;;;;;;;5076289;28;20047;-44
2021/08/15 06:58:19;;;;;;;22.60;16.27;;;;;;;;;;5085205;28;20047;-44
2021/08/15 07:00:46;;;;;;;21.13;16.52;;;;;;;;;;5089016;28;20501;-43
2021/08/15 07:03:13;;;;;;;22.08;15.07;;;;;;;;;;5076976;28;20028;-44
2021/08/15 07:05:40;;;;;;;22.02;17.33;;;;;;;;;;5080233;28;20032;-44
2021/08/15 07:08:06;;;;;;;17.33;13.95;;;;;;;;;;5085434;28;20036;-43
2021/08/15 07:10:33;;;;;;;22.58;15.50;;;;;;;;;;5087715;28;20121;-44
2021/08/15 07:13:03;;;;;;;30.98;15.43;;;;;;;;;;5086431;28;20560;-42
2021/08/15 07:15:30;;;;;;;16.83;14.82;;;;;;;;;;5080404;28;20047;-45
2021/08/15 07:17:57;;;;;;;18.00;14.60;;;;;;;;;;5082050;28;20039;-43
2021/08/15 07:20:24;;;;;;;18.30;14.52;;;;;;;;;;5090114;28;20123;-44
2021/08/15 07:22:51;;;;;;;20.00;14.82;;;;;;;;;;5077829;28;20036;-43
2021/08/15 07:25:19;;;;;;;24.23;15.27;;;;;;;;;;5080677;28;20044;-44
2021/08/15 07:27:46;;;;;;;20.73;15.40;;;;;;;;;;5082733;28;20040;-43
2021/08/15 07:30:14;;;;;;;16.48;13.75;;;;;;;;;;5072202;28;20509;-45
2021/08/15 07:32:52;;;;;;;19.85;14.32;;;;;;;;;;5080398;28;20046;-43
2021/08/15 07:35:20;;;;;;;21.42;12.80;;;;;;;;;;5090472;28;20044;-46
2021/08/15 07:37:47;;;;;;;25.30;13.60;;;;;;;;;;5078890;28;20051;-46
2021/08/15 07:40:14;;;;;;;19.85;11.45;;;;;;;;;;5079114;28;20040;-44
2021/08/15 07:42:41;;;;;;;21.73;12.07;;;;;;;;;;5084459;28;20504;-48
2021/08/15 07:45:08;;;;;;;16.33;11.13;;;;;;;;;;5088992;28;20044;-43
2021/08/15 07:47:35;;;;;;;18.77;13.52;;;;;;;;;;5076233;28;20505;-43
2021/08/15 07:50:03;;;;;;;15.55;12.98;;;;;;;;;;5087225;28;20412;-46
2021/08/15 07:52:29;;;;;;;15.30;11.93;;;;;;;;;;5094900;28;20074;-46
2021/08/15 07:54:56;;;;;;;16.45;11.43;;;;;;;;;;5085268;28;20044;-45
2021/08/15 07:57:23;;;;;;;16.75;11.30;;;;;;;;;;5088015;28;20039;-46
2021/08/15 07:59:49;;;;;;;16.27;11.80;;;;;;;;;;5085304;28;20058;-43
2021/08/15 08:02:17;;;;;;;15.73;10.52;;;;;;;;;;5081708;28;20058;-43
2021/08/15 08:04:44;;;;;;;12.88;10.07;;;;;;;;;;5088521;28;20089;-44
2021/08/15 08:07:12;;;;;;;15.05;10.88;;;;;;;;;;5088362;28;20039;-44
2021/08/15 08:09:39;;;;;;;12.40;9.43;;;;;;;;;;5085668;28;20458;-45
2021/08/15 08:12:06;;;;;;;14.10;11.13;;;;;;;;;;5085663;28;20067;-46
2021/08/15 08:14:33;;;;;;;11.70;10.00;;;;;;;;;;5083031;28;20032;-44
2021/08/15 08:17:00;;;;;;;14.75;10.35;;;;;;;;;;5087880;28;20519;-44
2021/08/15 08:19:27;;;;;;;21.35;17.55;;;;;;;;;;5091952;28;20546;-43
2021/08/15 08:21:54;;;;;;;16.02;11.27;;;;;;;;;;5084559;28;20043;-44
2021/08/15 08:24:20;;;;;;;14.82;10.55;;;;;;;;;;5081178;28;20383;-48
2021/08/15 08:26:47;;;;;;;13.63;10.02;;;;;;;;;;5093904;28;20047;-44
2021/08/15 08:29:14;;;;;;;14.98;10.00;;;;;;;;;;5094097;28;20063;-43
2021/08/15 08:31:41;;;;;;;16.58;10.48;;;;;;;;;;5079446;28;20054;-44
2021/08/15 08:34:07;;;;;;;14.52;10.07;;;;;;;;;;5078658;28;20054;-44
2021/08/15 08:36:34;;;;;;;14.68;10.20;;;;;;;;;;5069643;28;20067;-43
2021/08/15 08:39:01;;;;;;;11.57;9.27;;;;;;;;;;5072418;28;20124;-42
2021/08/15 08:41:28;;;;;;;15.65;9.80;;;;;;;;;;5080449;28;20090;-43
2021/08/15 08:43:55;;;;;;;12.05;8.73;;;;;;;;;;5083422;28;20032;-42
2021/08/15 08:46:23;;;;;;;12.07;8.82;;;;;;;;;;5088503;28;20058;-44
2021/08/15 08:48:53;;;;;;;11.30;9.45;;;;;;;;;;5075187;28;20090;-41
2021/08/15 08:51:21;;;;;;;12.65;8.45;;;;;;;;;;5073481;28;20051;-42
2021/08/15 08:53:51;;;;;;;10.52;8.50;;;;;;;;;;5079637;28;20075;-43
2021/08/15 08:56:21;;;;;;;13.07;8.98;;;;;;;;;;5081649;28;20044;-43
2021/08/15 08:58:49;;;;;;;15.35;9.38;;;;;;;;;;5091359;28;20418;-41
2021/08/15 09:01:16;;;;;;;15.15;8.98;;;;;;;;;;5083860;28;20067;-43
2021/08/15 09:03:44;;;;;;;11.50;8.75;;;;;;;;;;5076118;28;20054;-45
2021/08/15 09:06:22;;;;;;;12.45;8.80;;;;;;;;;;5075336;28;20064;-43
2021/08/15 09:08:49;;;;;;;15.10;9.48;;;;;;;;;;5089584;28;20269;-40
2021/08/15 09:11:18;;;;;;;11.65;8.85;;;;;;;;;;5089289;28;20064;-40
2021/08/15 09:13:58;;;;;;;15.93;10.15;;;;;;;;;;5088272;28;20123;-42
2021/08/15 09:16:45;;;;;;;14.25;9.43;;;;;;;;;;5092786;28;20048;-42
2021/08/15 09:19:37;;;;;;;11.70;9.25;;;;;;;;;;5081336;28;20059;-41
2021/08/15 09:22:15;;;;;;;17.88;10.20;;;;;;;;;;5072633;28;20536;-41
2021/08/15 09:24:54;;;;;;;15.15;9.18;;;;;;;;;;5083556;28;20036;-42
2021/08/15 09:27:23;;;;;;;13.88;9.32;;;;;;;;;;5073353;28;20044;-44
2021/08/15 09:30:08;;;;;;;14.20;9.82;;;;;;;;;;5088760;28;20055;-42
2021/08/15 09:32:36;;;;;;;12.57;10.45;;;;;;;;;;5093784;28;20075;-42
2021/08/15 09:35:04;;;;;;;18.35;9.95;;;;;;;;;;5092738;28;20428;-43
2021/08/15 09:37:32;;;;;;;12.68;8.73;;;;;;;;;;5080360;28;20041;-43
2021/08/15 09:39:59;;;;;;;16.45;9.93;;;;;;;;;;5090460;22;20264;-44
2021/08/15 09:42:44;;;;;;;13.90;9.45;;;;;;;;;;5014737;28;20129;-43
2021/08/15 09:45:16;;;;;;;14.02;9.40;;;;;;;;;;4996057;28;20077;-44
2021/08/15 09:47:43;;;;;;;15.25;9.18;;;;;;;;;;5008591;28;20044;-44
2021/08/15 09:50:17;;;;;;;12.27;8.98;;;;;;;;;;5000033;28;20050;-41
2021/08/15 09:52:45;;;;;;;11.55;9.23;;;;;;;;;;5002601;28;20040;-42
2021/08/15 09:55:12;;;;;;;14.68;9.68;;;;;;;;;;5011788;28;20045;-45
2021/08/15 09:57:39;;;;;;;16.15;9.27;;;;;;;;;;5003414;28;20042;-44
2021/08/15 10:00:26;;;;;;;12.20;9.07;;;;;;;;;;5007107;28;20046;-41
2021/08/15 10:02:53;;;;;;;12.10;8.90;;;;;;;;;;5003802;28;20173;-44
2021/08/15 10:05:20;;;;;;;14.68;9.63;;;;;;;;;;5001968;28;20104;-44
2021/08/15 10:07:47;;;;;;;18.02;8.70;;;;;;;;;;5005928;28;20133;-43
2021/08/15 10:10:17;;;;;;;13.68;9.65;;;;;;;;;;5002000;28;20049;-46
2021/08/15 10:12:43;;;;;;;14.93;8.93;;;;;;;;;;4995754;28;20475;-48
2021/08/15 10:15:11;;;;;;;17.00;9.35;;;;;;;;;;5005056;28;20046;-44
2021/08/15 10:17:38;;;;;;;14.50;8.77;;;;;;;;;;5001249;28;20395;-45
2021/08/15 10:20:07;;;;;;;16.00;8.80;;;;;;;;;;5005376;28;21824;-47
2021/08/15 10:22:34;;;;;;;15.35;8.48;;;;;;;;;;5007688;28;20481;-46
2021/08/15 10:25:05;;;;;;;15.23;8.90;;;;;;;;;;4998691;28;20569;-45
2021/08/15 10:27:41;;;;;;;13.05;9.05;;;;;;;;;;5002293;28;20050;-45
2021/08/15 10:30:14;;;;;;;12.82;8.68;;;;;;;;;;5004744;28;20443;-44
2021/08/15 10:32:56;;;;;;;13.70;8.55;;;;;;;;;;5008647;28;20049;-44
2021/08/15 10:35:24;;;;;;;13.18;8.50;;;;;;;;;;5005145;28;20050;-42
2021/08/15 10:38:17;;;;;;;13.45;8.63;;;;;;;;;;5003674;28;20132;-43
2021/08/15 10:40:48;;;;;;;13.95;8.65;;;;;;;;;;5006360;28;20542;-44
2021/08/15 10:43:34;;;;;;;20.38;8.85;;;;;;;;;;5005340;28;20062;-41
2021/08/15 10:46:07;;;;;;;12.07;8.18;;;;;;;;;;5003573;28;20038;-41
2021/08/15 10:48:49;;;;;;;14.98;8.23;;;;;;;;;;5007260;28;20045;-43
2021/08/15 10:51:35;;;;;;;11.80;8.00;;;;;;;;;;5009441;28;20038;-43
2021/08/15 10:54:01;;;;;;;14.13;8.23;;;;;;;;;;5001838;28;20034;-41
2021/08/15 10:56:47;;;;;;;18.92;8.45;;;;;;;;;;5005725;28;20044;-41
2021/08/15 10:59:31;;;;;;;12.63;8.07;;;;;;;;;;5001856;28;20054;-44
2021/08/15 11:02:10;;;;;;;14.48;8.35;;;;;;;;;;5007889;28;20042;-41
2021/08/15 11:04:37;;;;;;;13.40;8.10;;;;;;;;;;5008654;28;20034;-41
2021/08/15 11:07:05;;;;;;;11.68;7.90;;;;;;;;;;5005163;28;20050;-41
2021/08/15 11:09:51;;;;;;;11.38;7.78;;;;;;;;;;5004407;28;20121;-41
2021/08/15 11:12:18;;;;;;;12.60;8.80;;;;;;;;;;4997838;28;20042;-43
2021/08/15 11:14:55;;;;;;;11.10;8.23;;;;;;;;;;4994199;28;20516;-45
2021/08/15 11:17:24;;;;;;;19.52;8.25;;;;;;;;;;4999086;28;20443;-44
2021/08/15 11:19:51;;;;;;;11.63;8.27;;;;;;;;;;5006016;28;20061;-44
2021/08/15 11:22:21;;;;;;;11.45;8.35;;;;;;;;;;4993713;28;20054;-42
2021/08/15 11:24:48;;;;;;;17.00;8.32;;;;;;;;;;5001832;28;20495;-45
2021/08/15 11:27:14;;;;;;;10.82;8.52;;;;;;;;;;5009560;28;20040;-47
2021/08/15 11:29:42;;;;;;;14.32;8.43;;;;;;;;;;5006297;28;20126;-44
2021/08/15 11:32:12;;;;;;;12.73;8.18;;;;;;;;;;5005565;28;20046;-45
2021/08/15 11:34:48;;;;;;;11.05;8.65;;;;;;;;;;4998943;28;20065;-43
2021/08/15 11:37:17;;;;;;;12.63;8.23;;;;;;;;;;5006534;28;20069;-44
2021/08/15 11:39:44;;;;;;;16.48;7.97;;;;;;;;;;5013317;28;20395;-42
2021/08/15 11:42:19;;;;;;;13.23;8.38;;;;;;;;;;4994619;28;20515;-46
2021/08/15 11:44:46;;;;;;;12.45;8.27;;;;;;;;;;5001550;28;20066;-48
2021/08/15 11:47:20;;;;;;;11.07;8.02;;;;;;;;;;5001636;28;20125;-47
2021/08/15 11:49:47;;;;;;;16.20;8.45;;;;;;;;;;5005502;28;20050;-47
2021/08/15 11:52:15;;;;;;;9.68;8.10;;;;;;;;;;5002921;28;20052;-50
2021/08/15 11:54:42;;;;;;;13.00;8.00;;;;;;;;;;4999739;28;20050;-50
2021/08/15 11:57:11;;;;;;;12.65;7.72;;;;;;;;;;5000152;28;20145;-45
2021/08/15 11:59:39;;;;;;;11.43;8.07;;;;;;;;;;5005936;28;20052;-45
2021/08/15 12:02:06;;;;;;;13.82;7.95;;;;;;;;;;5005609;28;20052;-49
2021/08/15 12:04:33;;;;;;;11.77;8.40;;;;;;;;;;4999921;28;20042;-45
2021/08/15 12:07:03;;;;;;;12.55;8.02;;;;;;;;;;5003901;28;20069;-47
2021/08/15 12:09:30;;;;;;;13.52;8.20;;;;;;;;;;5006365;28;20061;-46
2021/08/15 12:11:58;;;;;;;12.52;8.35;;;;;;;;;;5002806;28;20141;-47
2021/08/15 12:14:35;;;;;;;10.05;7.65;;;;;;;;;;5003142;28;20065;-49
2021/08/15 12:17:02;;;;;;;13.65;8.20;;;;;;;;;;5004152;28;20066;-47
2021/08/15 12:19:30;;;;;;;13.45;8.23;;;;;;;;;;5002602;28;20046;-46
2021/08/15 12:21:58;;;;;;;13.57;8.73;;;;;;;;;;5000248;28;20403;-46
2021/08/15 12:24:27;;;;;;;11.68;7.60;;;;;;;;;;5000531;28;20124;-45
2021/08/15 12:26:59;;;;;;;15.30;7.97;;;;;;;;;;4996614;28;20069;-48
2021/08/15 12:29:30;;;;;;;13.52;8.57;;;;;;;;;;5005568;28;20129;-45
2021/08/15 12:32:01;;;;;;;13.57;7.97;;;;;;;;;;5035590;28;20072;-45
2021/08/15 12:34:27;;;;;;;11.40;8.50;;;;;;;;;;4999188;28;20125;-47
2021/08/15 12:36:55;;;;;;;11.00;7.68;;;;;;;;;;5002027;28;20133;-49
2021/08/15 12:39:29;;;;;;;11.60;7.97;;;;;;;;;;5010241;28;20128;-48
2021/08/15 12:42:00;;;;;;;14.43;7.35;;;;;;;;;;5002163;28;20124;-49
2021/08/15 12:44:28;;;;;;;13.63;8.45;;;;;;;;;;5004909;28;20121;-46
2021/08/15 12:46:56;;;;;;;13.85;7.05;;;;;;;;;;5006490;28;20046;-49
2021/08/15 12:49:31;;;;;;;13.63;7.32;;;;;;;;;;4997675;28;20065;-47
2021/08/15 12:52:18;;;;;;;13.35;8.23;;;;;;;;;;5008452;28;20046;-50
2021/08/15 12:55:01;;;;;;;11.40;7.35;;;;;;;;;;5003458;28;20043;-46
2021/08/15 12:57:29;;;;;;;12.25;7.95;;;;;;;;;;5001130;28;20446;-46
2021/08/15 12:59:56;;;;;;;12.75;7.32;;;;;;;;;;5007056;28;20097;-52
2021/08/15 13:02:24;;;;;;;13.77;7.85;;;;;;;;;;5002390;28;20118;-50
2021/08/15 13:04:55;;;;;;;11.30;6.80;;;;;;;;;;5006606;28;20054;-48
2021/08/15 13:07:23;;;;;;;12.77;7.50;;;;;;;;;;5012595;28;20050;-50
2021/08/15 13:09:50;;;;;;;11.00;7.05;;;;;;;;;;5023971;28;20161;-49
2021/08/15 13:12:17;;;;;;;9.75;7.07;;;;;;;;;;5004319;28;20435;-48
2021/08/15 13:14:44;;;;;;;13.85;7.20;;;;;;;;;;5008489;28;20074;-48
2021/08/15 13:17:12;;;;;;;12.48;6.93;;;;;;;;;;5006628;28;20050;-51
2021/08/15 13:19:42;;;;;;;10.38;6.50;;;;;;;;;;5012480;28;20069;-52
2021/08/15 13:22:09;;;;;;;12.25;7.00;;;;;;;;;;5007494;28;20076;-49
2021/08/15 13:24:37;;;;;;;11.48;7.15;;;;;;;;;;5006205;28;20076;-49
2021/08/15 13:27:05;;;;;;;13.90;6.90;;;;;;;;;;5011048;28;20125;-50
2021/08/15 13:29:31;;;;;;;10.30;7.22;;;;;;;;;;5010294;28;20516;-50
2021/08/15 13:31:58;;;;;;;15.75;7.75;;;;;;;;;;5003384;28;20565;-51
2021/08/15 13:34:25;;;;;;;12.10;7.03;;;;;;;;;;5009313;28;20555;-52
2021/08/15 13:36:52;;;;;;;10.35;7.28;;;;;;;;;;5010123;28;20124;-48
2021/08/15 13:39:19;;;;;;;14.82;7.40;;;;;;;;;;5015954;28;20136;-52
2021/08/15 13:41:46;;;;;;;13.65;8.07;;;;;;;;;;5022334;28;20034;-50
2021/08/15 13:44:12;;;;;;;11.85;7.20;;;;;;;;;;5014309;28;20052;-51
2021/08/15 13:46:39;;;;;;;13.02;7.63;;;;;;;;;;5011435;28;20076;-54
2021/08/15 13:49:06;;;;;;;13.13;7.25;;;;;;;;;;5011803;28;20057;-51
2021/08/15 13:51:33;;;;;;;10.57;7.30;;;;;;;;;;5005309;28;20133;-48
2021/08/15 13:54:03;;;;;;;10.63;7.07;;;;;;;;;;5007104;28;20073;-49
2021/08/15 13:56:32;;;;;;;11.35;7.05;;;;;;;;;;5010955;28;20120;-52
2021/08/15 13:59:15;;;;;;;10.15;7.22;;;;;;;;;;5009780;28;20108;-48
2021/08/15 14:01:42;;;;;;;10.20;7.63;;;;;;;;;;5009548;28;20392;-46
2021/08/15 14:04:10;;;;;;;12.52;7.50;;;;;;;;;;5014294;28;20038;-51
2021/08/15 14:06:39;;;;;;;13.05;7.40;;;;;;;;;;5010842;28;20045;-50
2021/08/15 14:09:06;;;;;;;12.35;7.00;;;;;;;;;;5007665;28;20050;-47
2021/08/15 14:11:34;;;;;;;10.70;7.15;;;;;;;;;;5010797;28;20042;-50
2021/08/15 14:14:02;;;;;;;11.32;7.15;;;;;;;;;;5007196;28;20097;-49
2021/08/15 14:16:31;;;;;;;12.15;6.85;;;;;;;;;;5010750;28;20047;-46
2021/08/15 14:18:59;;;;;;;15.20;7.20;;;;;;;;;;5003097;28;20035;-46
2021/08/15 14:21:28;;;;;;;9.27;6.55;;;;;;;;;;5009590;28;20127;-51
2021/08/15 14:23:56;;;;;;;8.43;6.90;;;;;;;;;;4993170;28;20129;-50
2021/08/15 14:26:23;;;;;;;14.60;7.43;;;;;;;;;;4995120;28;20069;-50
2021/08/15 14:28:50;;;;;;;12.82;8.05;;;;;;;;;;5012259;28;20042;-50